Flight Track Log - Related Links

Times and Time Zones

All times are in EDT time to prevent confusion due to time zone crossing. See the N753C flight status page for this flight to view local times or setup timezone preferences in your user account.

Time Position Orientation Groundspeed Altitude Reporting Facility
EDT Latitude Longitude Course Direction KTS MPH feet Rate Location/Type
Tue 09:32:03 AM 32.8333 -96.8333 203° Southwest 124 143 1,100  Level Dallas / Fort Worth TRACON
Tue 09:33:15 AM 32.8000 -96.8500 203° Southwest 139 160 2,300 1,091 Climbing Dallas / Fort Worth TRACON
Tue 09:34:15 AM 32.8167 -96.8833 301° West 145 167 3,500 850 Climbing Dallas / Fort Worth TRACON
Tue 09:35:15 AM 32.8333 -96.9333 292° West 167 192 4,000 250 Climbing Dallas / Fort Worth TRACON
Tue 09:36:15 AM 32.8667 -96.9667 320° Northwest 186 214 4,000  Level Dallas / Fort Worth TRACON
Tue 09:37:15 AM 32.8833 -97.0167 292° West 162 186 4,000  Level Dallas / Fort Worth TRACON
Tue 09:38:15 AM 32.8833 -97.0667 270° West 167 192 4,000  Level Dallas / Fort Worth TRACON
Tue 09:39:21 AM 32.8833 -97.1333 270° West 166 191 4,000  Level Dallas / Fort Worth TRACON
Tue 09:40:15 AM 32.9000 -97.1833 292° West 179 206 4,000  Level Dallas / Fort Worth TRACON
Tue 09:41:10 AM 32.9167 -97.2167 301° West 161 185 4,000  Level Dallas / Fort Worth TRACON
Tue 09:42:15 AM 32.9333 -97.2667 292° West 169 194 4,000 350 Level Dallas / Fort Worth TRACON
Tue 09:42:53 AM 32.9461 -97.3069 291° West 171 197 4,600 980 Climbing Fort Worth Center
Tue 09:43:53 AM 32.9606 -97.3539 290° West 161 185 5,600 1,000 Climbing Fort Worth Center
Tue 09:44:53 AM 32.9775 -97.4011 293° West 156 180 6,600 950 Climbing Fort Worth Center
Tue 09:45:53 AM 32.9942 -97.4481 293° West 150 173 7,500 950 Climbing Fort Worth Center
Tue 09:46:53 AM 33.0108 -97.4978 292° West 155 178 8,500 900 Climbing Fort Worth Center
Tue 09:47:53 AM 33.0275 -97.5497 291° West 160 184 9,300 750 Climbing Fort Worth Center
Tue 09:48:53 AM 33.0483 -97.6042 295° West 172 198 10,000 400 Climbing Fort Worth Center
Tue 09:49:53 AM 33.0689 -97.6664 292° West 193 222 10,100  Climbing Fort Worth Center
Tue 09:50:53 AM 33.0897 -97.7333 290° West 206 237 10,000  Descending Fort Worth Center
Tue 09:51:53 AM 33.1103 -97.7978 291° West 212 244 10,100 650 Climbing Fort Worth Center
Tue 09:52:53 AM 33.1289 -97.8550 291° West 197 227 11,300 1,100 Climbing Fort Worth Center
Tue 09:53:53 AM 33.1497 -97.9097 294° West 184 212 12,300 950 Climbing Fort Worth Center
Tue 09:54:53 AM 33.1725 -97.9669 295° West 184 212 13,200 900 Climbing Fort Worth Center
Tue 09:55:53 AM 33.1931 -98.0192 295° West 184 212 14,100 850 Climbing Fort Worth Center
Tue 09:56:53 AM 33.2136 -98.0764 293° West 184 212 14,900 850 Climbing Fort Worth Center
Tue 09:57:53 AM 33.2361 -98.1336 295° West 190 219 15,800 800 Climbing Fort Worth Center
Tue 09:58:53 AM 33.2589 -98.1911 295° West 196 226 16,500 800 Climbing Fort Worth Center
Tue 09:59:53 AM 33.2814 -98.2508 294° West 196 226 17,400 800 Climbing Fort Worth Center
Tue 10:00:53 AM 33.3061 -98.3108 296° West 196 226 18,100 750 Climbing Fort Worth Center
Tue 10:01:53 AM 33.3286 -98.3706 294° West 196 226 18,900 700 Climbing Fort Worth Center
Tue 10:02:53 AM 33.3489 -98.4306 292° West 196 226 19,500 700 Climbing Fort Worth Center
Tue 10:03:53 AM 33.3714 -98.4856 296° West 196 226 20,300 750 Climbing Fort Worth Center
Tue 10:04:53 AM 33.3958 -98.5506 294° West 201 231 21,000 700 Climbing Fort Worth Center
Tue 10:05:53 AM 33.4225 -98.6206 295° West 201 231 21,700 700 Climbing Fort Worth Center
Tue 10:06:53 AM 33.4467 -98.6881 293° West 212 244 22,400 650 Climbing Fort Worth Center
Tue 10:07:53 AM 33.4733 -98.7508 297° West 212 244 23,000 400 Climbing Fort Worth Center
Tue 10:08:53 AM 33.4956 -98.8158 292° West 217 250 23,200 600 Climbing Fort Worth Center
Tue 10:09:53 AM 33.5217 -98.8911 293° West 217 250 24,200 750 Climbing Fort Worth Center
Tue 10:10:53 AM 33.5481 -98.9561 296° West 217 250 24,700 550 Climbing Fort Worth Center
Tue 10:11:53 AM 33.5722 -99.0214 294° West 222 255 25,300 600 Climbing Fort Worth Center
Tue 10:12:53 AM 33.5986 -99.0917 294° West 222 255 25,900 350 Climbing Fort Worth Center
Tue 10:13:53 AM 33.6308 -99.1722 296° West 235 270 26,000 50 Climbing Fort Worth Center
Tue 10:14:53 AM 33.6589 -99.2478 294° West 247 284 26,000  Level Fort Worth Center
Tue 10:15:53 AM 33.6892 -99.3281 294° West 253 291 26,000  Level Fort Worth Center
Tue 10:16:53 AM 33.7172 -99.4061 293° West 253 291 26,000  Level Fort Worth Center
Tue 10:17:53 AM 33.7469 -99.4869 294° West 258 297 26,000  Level Fort Worth Center
Tue 10:18:53 AM 33.7772 -99.5600 297° West 258 297 26,000  Level Fort Worth Center
Tue 10:19:53 AM 33.8028 -99.6381 292° West 253 291 26,000  Level Fort Worth Center
Tue 10:20:53 AM 33.8328 -99.7189 294° West 253 291 26,000  Level Fort Worth Center
Tue 10:21:53 AM 33.8625 -99.7972 295° West 253 291 26,000  Level Fort Worth Center
Tue 10:22:53 AM 33.8903 -99.8731 294° West 253 291 26,000  Level Fort Worth Center
Tue 10:23:53 AM 33.9178 -99.9564 292° West 253 291 26,000  Level Fort Worth Center
Tue 10:24:53 AM 33.9475 -100.0350 295° West 253 291 26,000  Level Fort Worth Center
Tue 10:25:53 AM 33.9731 -100.1133 291° West 253 291 26,000  Level Fort Worth Center
Tue 10:26:53 AM 34.0028 -100.1894 295° West 253 291 26,000  Level Fort Worth Center
Tue 10:27:53 AM 34.0322 -100.2656 295° West 253 291 26,000  Level Fort Worth Center
Tue 10:28:53 AM 34.0597 -100.3442 293° West 253 291 26,000  Level Fort Worth Center
Tue 10:29:53 AM 34.0892 -100.4228 294° West 253 291 26,000  Level Fort Worth Center
Tue 10:30:53 AM 34.1164 -100.5042 292° West 253 291 26,000  Level Fort Worth Center
Tue 10:31:53 AM 34.1478 -100.5781 297° West 253 291 26,000  Level Fort Worth Center
Tue 10:32:53 AM 34.1731 -100.6567 291° West 253 291 26,000  Level Fort Worth Center
Tue 10:33:53 AM 34.2000 -100.7356 292° West 253 291 26,000  Level Fort Worth Center
Tue 10:34:53 AM 34.2272 -100.8144 293° West 253 291 26,000  Level Fort Worth Center
Tue 10:35:53 AM 34.2564 -100.8911 295° West 253 291 26,000  Level Fort Worth Center
Tue 10:36:53 AM 34.2833 -100.9675 293° West 253 291 26,000  Level Fort Worth Center
Tue 10:38:36 AM 34.3269 -101.0978 292° West 254 292 26,000  Level Albuquerque Center
Tue 10:39:38 AM 34.3547 -101.1756 293° West 254 292 26,000  Level Albuquerque Center
Tue 10:40:40 AM 34.3817 -101.2544 293° West 253 291 26,000  Level Albuquerque Center
Tue 10:41:42 AM 34.4136 -101.3467 293° West 250 288 26,000  Level Albuquerque Center
Tue 10:42:44 AM 34.4414 -101.4242 294° West 251 289 26,000  Level Albuquerque Center
Tue 10:43:46 AM 34.4672 -101.5028 292° West 250 288 26,000  Level Albuquerque Center
Tue 10:44:48 AM 34.4950 -101.5808 293° West 251 289 26,000  Level Albuquerque Center
Tue 10:45:50 AM 34.5217 -101.6592 292° West 251 289 26,000  Level Albuquerque Center
Tue 10:46:52 AM 34.5483 -101.7394 292° West 254 292 26,000  Level Albuquerque Center
Tue 10:47:54 AM 34.5747 -101.8175 292° West 251 289 26,000  Level Albuquerque Center
Tue 10:48:56 AM 34.6069 -101.9100 293° West 249 287 26,000  Level Albuquerque Center
Tue 10:49:58 AM 34.6322 -101.9867 292° West 246 283 26,000  Level Albuquerque Center
Tue 10:51:00 AM 34.6594 -102.0639 293° West 247 284 26,000  Level Albuquerque Center
Tue 10:52:02 AM 34.6844 -102.1406 292° West 245 282 26,000  Level Albuquerque Center
Tue 10:53:04 AM 34.7103 -102.2178 292° West 245 282 26,000  Level Albuquerque Center
Tue 10:54:06 AM 34.7369 -102.2961 293° West 248 285 26,000  Level Albuquerque Center
Tue 10:55:08 AM 34.7686 -102.3878 293° West 246 283 26,000  Level Albuquerque Center
Tue 10:56:10 AM 34.7950 -102.4658 292° West 248 285 26,000  Level Albuquerque Center
Tue 10:57:12 AM 34.8206 -102.5431 292° West 247 284 26,000  Level Albuquerque Center
Tue 10:58:14 AM 34.8467 -102.6203 292° West 247 284 26,000  Level Albuquerque Center
Tue 10:59:16 AM 34.8742 -102.7025 292° West 245 282 26,000  Level Albuquerque Center
Tue 11:00:18 AM 34.8997 -102.7808 292° West 246 283 26,000  Level Albuquerque Center
Tue 11:01:21 AM 34.9258 -102.8575 293° West 244 281 26,000  Level Albuquerque Center
Tue 11:02:23 AM 34.9514 -102.9361 292° West 247 284 26,000  Level Albuquerque Center
Tue 11:03:25 AM 34.9781 -103.0139 293° West 247 284 26,000  Level Albuquerque Center
Tue 11:04:27 AM 35.0069 -103.1047 291° West 245 282 26,000  Level Albuquerque Center
Tue 11:05:29 AM 35.0331 -103.1831 292° West 246 283 26,000  Level Albuquerque Center
Tue 11:06:31 AM 35.0597 -103.2619 292° West 249 287 26,000  Level Albuquerque Center
Tue 11:07:33 AM 35.0856 -103.3414 292° West 250 288 26,000  Level Albuquerque Center
Tue 11:08:35 AM 35.1114 -103.4222 291° West 251 289 26,000  Level Albuquerque Center
Tue 11:09:37 AM 35.1381 -103.5019 292° West 252 290 26,000  Level Albuquerque Center
Tue 11:10:39 AM 35.1644 -103.5819 292° West 251 289 26,000  Level Albuquerque Center
Tue 11:11:41 AM 35.1939 -103.6747 291° West 250 288 26,000  Level Albuquerque Center
Tue 11:12:43 AM 35.2200 -103.7550 292° West 251 289 26,000  Level Albuquerque Center
Tue 11:13:45 AM 35.2453 -103.8331 292° West 247 284 26,000  Level Albuquerque Center
Tue 11:14:47 AM 35.2708 -103.9131 291° West 249 287 26,000  Level Albuquerque Center
Tue 11:15:49 AM 35.2958 -103.9933 291° West 251 289 26,000  Level Albuquerque Center
Tue 11:16:51 AM 35.3228 -104.0711 293° West 249 287 26,000 -339 Level Albuquerque Center
Tue 11:17:53 AM 35.3522 -104.1636 291° West 250 288 25,300 -1,065 Descending Albuquerque Center
Tue 11:18:55 AM 35.3772 -104.2436 291° West 252 290 23,800 -1,548 Descending Albuquerque Center
Tue 11:19:57 AM 35.4003 -104.3225 290° West 247 284 22,100 -1,645 Descending Albuquerque Center
Tue 11:20:59 AM 35.4247 -104.4017 291° West 248 285 20,400 -1,632 Descending Albuquerque Center
Tue 11:22:02 AM 35.4494 -104.4808 291° West 248 285 18,700 -1,584 Descending Albuquerque Center
Tue 11:23:04 AM 35.4775 -104.5717 291° West 243 280 17,100 -1,452 Descending Albuquerque Center
Tue 11:24:06 AM 35.5000 -104.6475 290° West 239 275 15,700 -1,355 Descending Albuquerque Center
Tue 11:25:08 AM 35.5225 -104.7189 291° West 231 266 14,300 -1,355 Descending Albuquerque Center
Tue 11:26:10 AM 35.5453 -104.7886 292° West 223 257 12,900 -1,355 Descending Albuquerque Center
Tue 11:28:00 AM 35.5801 -104.9210 288° West  Level FlightAware Approximate
Tue 11:35:00 AM 35.6500 -105.1333 North  Level FlightAware Approximate
Tue 11:36:00 AM 35.6542 -105.1424 North  Level Estimated
Tue 11:37:00 AM 35.6542 -105.1424 North  Level Estimated
Tue 11:38:00 AM 35.6542 -105.1424 North  Level Estimated
Tue 11:39:00 AM 35.6542 -105.1424 North  Level Estimated
Tue 11:40:00 AM 35.6542 -105.1424 North  Level Estimated
Tue 11:41:00 AM 35.6542 -105.1424 North  Level Estimated
Tue 11:42:00 AM 35.6542 -105.1424 North  Level Estimated
Tue 11:43:00 AM 35.6542 -105.1424 North  Level Estimated
Tue 11:44:00 AM 35.6542 -105.1424 North  Level Estimated
Tue 11:45:00 AM 35.6542 -105.1424 North  Level Estimated
Tue 11:46:00 AM 35.6542 -105.1424 North  Level Estimated
Tue 11:47:00 AM 35.6542 -105.1424 North  Level Estimated

Login

Don't have an account? Register now (free) for customized features, flight alerts, and more!